Time;durP1;ratioP1;P1;durP2;ratioP2;P2;SDS_P1;SDS_P2;PMS_P1;PMS_P2;Temp;Humidity;BMP_temperature;BMP_pressure;BME280_temperature;BME280_humidity;BME280_pressure;Samples;Min_cycle;Max_cycle;Signal;HPM_P1;HPM_P2
2022/03/30 00:01:14;;;;;;;2.23;0.90;;;10.60;80.90;;;;;;5093596;28;20502;-86
2022/03/30 00:03:41;;;;;;;1.90;1.07;;;10.60;79.90;;;;;;5093829;28;20526;-86
2022/03/30 00:06:08;;;;;;;1.60;1.60;;;10.60;80.30;;;;;;5093992;28;20448;-86
2022/03/30 00:08:35;;;;;;;1.20;0.60;;;10.60;80.30;;;;;;5096761;28;20459;-85
2022/03/30 00:11:03;;;;;;;2.47;0.70;;;10.60;80.50;;;;;;5097562;28;20943;-85
2022/03/30 00:13:30;;;;;;;1.60;1.37;;;10.70;80.60;;;;;;5097595;28;20454;-85
2022/03/30 00:15:57;;;;;;;1.33;0.87;;;10.60;80.80;;;;;;5097654;28;20459;-85
2022/03/30 00:18:23;;;;;;;1.20;1.10;;;10.60;81.20;;;;;;5098233;28;20451;-86
2022/03/30 00:20:50;;;;;;;1.10;1.10;;;10.60;81.40;;;;;;5097272;28;20959;-86
2022/03/30 00:23:17;;;;;;;2.53;1.03;;;10.60;80.80;;;;;;5097188;28;20507;-86
2022/03/30 00:25:44;;;;;;;1.83;0.90;;;10.70;80.90;;;;;;5097405;28;20479;-85
2022/03/30 00:28:12;;;;;;;1.80;1.70;;;10.60;79.90;;;;;;5097114;28;20800;-86
2022/03/30 00:30:39;;;;;;;0.70;0.70;;;10.50;80.30;;;;;;5097300;28;20483;-85
2022/03/30 00:33:06;;;;;;;2.57;1.10;;;10.50;80.60;;;;;;5097220;28;20447;-86
2022/03/30 00:35:33;;;;;;;0.90;0.80;;;10.50;81.00;;;;;;5097542;28;20447;-86
2022/03/30 00:38:00;;;;;;;2.90;1.47;;;10.50;81.80;;;;;;5097262;28;20450;-86
2022/03/30 00:40:27;;;;;;;0.50;0.50;;;10.50;82.50;;;;;;5096695;28;21001;-86
2022/03/30 00:42:54;;;;;;;0.93;0.80;;;10.50;82.30;;;;;;5097093;28;20444;-86
2022/03/30 00:45:24;;;;;;;1.23;0.90;;;10.50;83.00;;;;;;5096994;28;20432;-86
2022/03/30 00:47:51;;;;;;;1.63;1.10;;;10.60;83.10;;;;;;5097300;28;20436;-85
2022/03/30 00:50:21;;;;;;;2.40;1.33;;;10.50;83.80;;;;;;5097027;28;20464;-86
2022/03/30 00:52:51;;;;;;;2.20;0.60;;;10.50;83.90;;;;;;5096766;28;20448;-86
2022/03/30 00:55:19;;;;;;;2.30;1.17;;;10.50;83.90;;;;;;5096866;28;20482;-85
2022/03/30 00:57:46;;;;;;;3.97;2.27;;;10.60;83.10;;;;;;5097648;28;20800;-86
2022/03/30 01:00:15;;;;;;;0.60;0.60;;;10.60;81.90;;;;;;5096323;28;20537;-86
2022/03/30 01:02:46;;;;;;;1.70;1.00;;;10.60;81.30;;;;;;5096516;28;20970;-86
2022/03/30 01:05:13;;;;;;;5.70;1.10;;;10.60;82.00;;;;;;5096798;28;20437;-86
2022/03/30 01:07:40;;;;;;;1.00;0.47;;;10.60;82.50;;;;;;5096490;28;20435;-85
2022/03/30 01:10:09;;;;;;;0.87;0.87;;;10.60;83.10;;;;;;5096322;28;20468;-86
2022/03/30 01:12:39;;;;;;;0.90;0.90;;;10.60;83.60;;;;;;5096157;28;20450;-85
2022/03/30 01:15:07;;;;;;;1.47;1.23;;;10.60;84.00;;;;;;5096628;28;20452;-85
2022/03/30 01:17:34;;;;;;;1.47;1.00;;;10.50;83.30;;;;;;5096272;28;20452;-86
2022/03/30 01:20:02;;;;;;;9.47;1.53;;;10.50;84.50;;;;;;5095921;28;20533;-86
2022/03/30 01:22:31;;;;;;;0.97;0.90;;;10.50;84.50;;;;;;5096092;28;20448;-86
2022/03/30 01:24:58;;;;;;;1.13;0.83;;;10.50;84.10;;;;;;5096119;28;20434;-85
2022/03/30 01:27:24;;;;;;;1.50;0.77;;;10.50;84.70;;;;;;5096412;28;20534;-85
2022/03/30 01:32:37;;;;;;;0.70;0.60;;;10.50;84.80;;;;;;5096319;28;20481;-86
2022/03/30 01:35:06;;;;;;;1.67;1.57;;;10.50;85.50;;;;;;5096117;28;20452;-85
2022/03/30 01:37:34;;;;;;;2.50;0.73;;;10.50;86.00;;;;;;5096121;28;20450;-86
2022/03/30 01:40:04;;;;;;;1.10;1.00;;;10.50;86.90;;;;;;5095823;28;20488;-86
2022/03/30 01:42:31;;;;;;;0.80;0.80;;;10.50;86.40;;;;;;5096825;28;20440;-86
2022/03/30 01:44:59;;;;;;;10.00;1.80;;;10.50;86.30;;;;;;5095666;28;20935;-86
2022/03/30 01:47:26;;;;;;;1.77;0.80;;;10.50;85.60;;;;;;5095517;28;20443;-86
2022/03/30 01:49:53;;;;;;;0.97;0.97;;;10.50;86.10;;;;;;5095605;28;20463;-86
2022/03/30 01:52:19;;;;;;;0.50;0.50;;;10.50;86.40;;;;;;5095785;28;20452;-86
2022/03/30 01:54:48;;;;;;;0.97;0.57;;;10.50;86.90;;;;;;5095885;28;20444;-86
2022/03/30 01:57:15;;;;;;;5.43;1.00;;;10.40;86.70;;;;;;5095635;28;20447;-85
2022/03/30 01:59:44;;;;;;;0.75;0.75;;;10.40;86.50;;;;;;5094805;28;20472;-86
2022/03/30 02:02:12;;;;;;;3.90;1.17;;;10.40;86.60;;;;;;5095347;28;20452;-86
2022/03/30 02:04:39;;;;;;;4.57;1.47;;;10.30;86.90;;;;;;5095352;28;20992;-86
2022/03/30 02:07:08;;;;;;;0.70;0.50;;;10.40;87.10;;;;;;5095466;28;20448;-86
2022/03/30 02:09:35;;;;;;;1.47;1.37;;;10.30;88.50;;;;;;5095813;28;20503;-86
2022/03/30 02:12:03;;;;;;;1.43;0.70;;;10.40;88.70;;;;;;5095292;28;20440;-85
2022/03/30 02:14:30;;;;;;;0.80;0.60;;;10.40;89.60;;;;;;5095462;28;20470;-86
2022/03/30 02:16:57;;;;;;;2.30;1.00;;;10.40;90.00;;;;;;5095234;28;20448;-85
2022/03/30 02:19:23;;;;;;;2.40;1.60;;;10.40;89.80;;;;;;5095275;28;20470;-86
2022/03/30 02:21:50;;;;;;;0.70;0.70;;;10.40;89.80;;;;;;5094784;28;20464;-86
2022/03/30 02:24:17;;;;;;;1.47;1.30;;;10.30;90.10;;;;;;5094853;28;20954;-85
2022/03/30 02:26:45;;;;;;;3.20;1.67;;;10.30;90.40;;;;;;5095081;28;20439;-86
2022/03/30 02:29:13;;;;;;;1.00;0.90;;;10.30;90.60;;;;;;5095020;28;20474;-86
2022/03/30 02:31:41;;;;;;;2.20;1.00;;;10.20;90.30;;;;;;5094329;28;20845;-86
2022/03/30 02:34:08;;;;;;;3.30;1.00;;;10.20;90.70;;;;;;5095293;28;20452;-86
2022/03/30 02:36:35;;;;;;;0.40;0.33;;;10.20;90.80;;;;;;5094973;28;20423;-86
2022/03/30 02:39:02;;;;;;;1.07;0.80;;;10.20;91.40;;;;;;5094760;28;20983;-86
2022/03/30 02:41:29;;;;;;;2.80;1.33;;;10.30;91.80;;;;;;5094827;28;20486;-85
2022/03/30 02:43:56;;;;;;;2.73;0.90;;;10.20;91.70;;;;;;5094931;28;20915;-86
2022/03/30 02:46:24;;;;;;;1.10;1.00;;;10.30;92.30;;;;;;5094647;28;20943;-84
2022/03/30 02:48:50;;;;;;;1.07;0.93;;;10.20;92.80;;;;;;5094629;28;20826;-86
2022/03/30 02:51:17;;;;;;;1.17;1.03;;;10.20;93.50;;;;;;5094873;28;20451;-85
2022/03/30 02:53:44;;;;;;;1.60;1.30;;;10.30;93.50;;;;;;5094617;28;20963;-85
2022/03/30 02:56:11;;;;;;;0.83;0.60;;;10.20;94.00;;;;;;5094770;28;20443;-85
2022/03/30 02:58:38;;;;;;;1.23;0.90;;;10.20;93.90;;;;;;5094293;28;20799;-85
2022/03/30 03:01:04;;;;;;;6.57;2.43;;;10.20;94.30;;;;;;5094167;28;20863;-86
2022/03/30 03:03:32;;;;;;;8.93;1.27;;;10.20;93.90;;;;;;5094431;28;20443;-86
2022/03/30 03:05:59;;;;;;;2.33;1.43;;;10.20;92.60;;;;;;5094322;28;20475;-86
2022/03/30 03:08:26;;;;;;;1.03;0.67;;;10.20;93.00;;;;;;5094520;28;20965;-86
2022/03/30 03:10:53;;;;;;;0.50;0.50;;;10.30;93.40;;;;;;5094420;28;20443;-86
2022/03/30 03:13:20;;;;;;;2.87;0.90;;;10.30;94.30;;;;;;5095118;28;20809;-87
2022/03/30 03:15:48;;;;;;;0.53;0.50;;;10.30;95.00;;;;;;5094528;28;20448;-86
2022/03/30 03:18:15;;;;;;;3.30;0.97;;;10.30;95.30;;;;;;5094161;28;20432;-86
2022/03/30 03:20:45;;;;;;;1.73;0.70;;;10.30;96.50;;;;;;5094347;28;20483;-87
2022/03/30 03:23:12;;;;;;;0.40;0.40;;;10.30;96.10;;;;;;5094421;28;20413;-86
2022/03/30 03:25:40;;;;;;;0.90;0.80;;;10.30;97.50;;;;;;5093940;28;20824;-87
2022/03/30 03:28:08;;;;;;;2.70;0.83;;;10.20;98.00;;;;;;5094491;28;20494;-86
2022/03/30 03:30:35;;;;;;;1.60;0.80;;;10.20;99.30;;;;;;5094032;28;20843;-86
2022/03/30 03:33:02;;;;;;;3.20;0.70;;;10.10;99.90;;;;;;5094218;28;20471;-87
2022/03/30 03:35:30;;;;;;;1.97;1.20;;;10.00;99.90;;;;;;5093968;28;20962;-87
2022/03/30 03:37:59;;;;;;;0.50;0.50;;;10.00;99.90;;;;;;5094150;28;20501;-85
2022/03/30 03:40:26;;;;;;;0.93;0.93;;;9.90;99.90;;;;;;5093741;28;20993;-87
2022/03/30 03:42:53;;;;;;;0.50;0.50;;;9.80;99.90;;;;;;5097648;28;20546;-86
2022/03/30 03:45:20;;;;;;;4.40;2.10;;;9.80;99.90;;;;;;5098198;28;20416;-87
2022/03/30 03:47:48;;;;;;;1.43;0.53;;;9.80;99.90;;;;;;5098031;28;20450;-87
2022/03/30 03:50:15;;;;;;;0.57;0.50;;;9.70;99.90;;;;;;5098313;28;20468;-86
2022/03/30 03:52:42;;;;;;;2.10;0.80;;;9.60;99.90;;;;;;5098162;28;20451;-86
2022/03/30 03:55:11;;;;;;;0.73;0.60;;;9.60;99.90;;;;;;5098655;28;20471;-85
2022/03/30 03:57:39;;;;;;;2.60;0.87;;;9.60;99.90;;;;;;5097782;28;20431;-86
2022/03/30 04:00:08;;;;;;;0.40;0.40;;;9.50;99.90;;;;;;5097547;28;20502;-86
2022/03/30 04:02:34;;;;;;;0.83;0.70;;;9.50;99.90;;;;;;5098106;28;20475;-87
2022/03/30 04:05:01;;;;;;;1.20;1.17;;;9.50;99.90;;;;;;5097995;28;20444;-86
2022/03/30 04:07:28;;;;;;;0.50;0.50;;;9.50;99.90;;;;;;5097662;28;20463;-86
2022/03/30 04:09:55;;;;;;;1.57;0.53;;;9.50;99.90;;;;;;5097381;28;20461;-86
2022/03/30 04:12:23;;;;;;;3.30;1.73;;;9.50;99.90;;;;;;5097539;28;20824;-86
2022/03/30 04:14:50;;;;;;;1.93;1.20;;;9.50;99.90;;;;;;5097428;28;20431;-86
2022/03/30 04:17:18;;;;;;;0.97;0.70;;;9.50;99.90;;;;;;5097117;28;20439;-86
2022/03/30 04:19:45;;;;;;;1.43;0.90;;;9.50;99.90;;;;;;5097350;28;20562;-86
2022/03/30 04:22:11;;;;;;;1.33;1.23;;;9.50;99.90;;;;;;5097139;28;20495;-86
2022/03/30 04:25:07;;;;;;;3.47;0.87;;;9.40;99.90;;;;;;5096962;28;20436;-86
2022/03/30 04:34:37;;;;;;;0.40;0.30;;;9.20;99.90;;;;;;5040943;28;20882;-87
2022/03/30 04:43:46;;;;;;;1.03;0.63;;;9.00;99.90;;;;;;5066910;28;20434;-87
2022/03/30 04:46:13;;;;;;;1.27;1.27;;;8.90;99.90;;;;;;5096830;28;20444;-88
2022/03/30 04:48:46;;;;;;;1.63;0.60;;;8.90;99.90;;;;;;5096625;28;20485;-88
2022/03/30 04:52:00;;;;;;;0.40;0.40;;;8.80;99.90;;;;;;5096775;28;20498;-88
2022/03/30 04:55:04;;;;;;;0.40;0.40;;;8.80;99.90;;;;;;5095692;28;20446;-88
2022/03/30 05:00:33;;;;;;;0.83;0.83;;;8.70;99.90;;;;;;5095790;28;20476;-89
2022/03/30 05:03:51;;;;;;;0.40;0.40;;;8.70;99.90;;;;;;5096283;28;20489;-87
2022/03/30 05:06:35;;;;;;;0.40;0.40;;;8.60;99.90;;;;;;5091995;28;20478;-87
2022/03/30 05:09:38;;;;;;;0.40;0.30;;;8.60;99.90;;;;;;5095858;28;20476;-87
2022/03/30 05:12:06;;;;;;;0.70;0.50;;;8.50;99.90;;;;;;5096212;28;21023;-88
2022/03/30 05:14:33;;;;;;;1.07;0.47;;;8.50;99.90;;;;;;5096253;28;20439;-89
2022/03/30 05:17:02;;;;;;;2.80;1.00;;;8.50;99.90;;;;;;5096401;28;20803;-89
2022/03/30 05:19:29;;;;;;;0.50;0.50;;;8.50;99.90;;;;;;5096217;28;20986;-88
2022/03/30 05:21:56;;;;;;;0.47;0.47;;;8.40;99.90;;;;;;5096075;28;21017;-89
2022/03/30 05:24:22;;;;;;;1.03;1.03;;;8.50;99.90;;;;;;5095864;28;20441;-88
2022/03/30 05:26:50;;;;;;;1.87;0.77;;;8.40;99.90;;;;;;5095972;28;20448;-88
2022/03/30 05:29:17;;;;;;;0.67;0.67;;;8.40;99.90;;;;;;5095866;28;20464;-88
2022/03/30 05:31:45;;;;;;;0.40;0.40;;;8.40;99.90;;;;;;5095835;28;20484;-88
2022/03/30 05:34:13;;;;;;;0.83;0.83;;;8.40;99.90;;;;;;5096184;28;20444;-89
2022/03/30 05:36:40;;;;;;;0.47;0.47;;;8.40;99.90;;;;;;5095646;28;20463;-88
2022/03/30 05:39:06;;;;;;;1.60;0.83;;;8.30;99.90;;;;;;5095667;28;20460;-88
2022/03/30 05:41:34;;;;;;;1.97;1.10;;;8.30;99.90;;;;;;5095749;28;20479;-88
2022/03/30 05:44:01;;;;;;;2.83;0.63;;;8.30;99.90;;;;;;5095518;28;20432;-89
2022/03/30 05:46:28;;;;;;;4.23;0.77;;;8.30;99.90;;;;;;5095657;28;20440;-89
2022/03/30 05:48:54;;;;;;;7.80;3.90;;;8.30;99.90;;;;;;5095444;28;20975;-89
2022/03/30 05:51:22;;;;;;;1.77;1.67;;;8.30;99.90;;;;;;5095480;28;20455;-89
2022/03/30 05:53:50;;;;;;;0.40;0.40;;;8.30;99.90;;;;;;5095924;28;20927;-89
2022/03/30 05:56:17;;;;;;;0.63;0.60;;;8.20;99.90;;;;;;5095638;28;20927;-88
2022/03/30 05:58:44;;;;;;;0.97;0.40;;;8.20;99.90;;;;;;5095144;28;20448;-88
2022/03/30 06:01:10;;;;;;;1.13;0.87;;;8.10;99.90;;;;;;5094968;28;20475;-88
2022/03/30 06:03:38;;;;;;;0.60;0.60;;;8.10;99.90;;;;;;5095137;28;20455;-88
2022/03/30 06:06:05;;;;;;;0.60;0.53;;;8.10;99.90;;;;;;5094112;28;20483;-89
2022/03/30 06:08:34;;;;;;;0.90;0.60;;;8.20;99.90;;;;;;5094786;28;20451;-88
2022/03/30 06:11:01;;;;;;;0.47;0.47;;;8.20;99.90;;;;;;5094981;28;20923;-88
2022/03/30 06:13:27;;;;;;;0.83;0.40;;;8.10;99.90;;;;;;5094777;28;20451;-88
2022/03/30 06:15:54;;;;;;;0.60;0.60;;;8.10;99.90;;;;;;5094781;28;20948;-89
2022/03/30 06:18:21;;;;;;;0.70;0.70;;;8.20;99.90;;;;;;5094541;28;20436;-88
2022/03/30 06:20:48;;;;;;;0.70;0.50;;;8.10;99.90;;;;;;5094465;28;20452;-88
2022/03/30 06:23:15;;;;;;;0.40;0.40;;;8.20;99.90;;;;;;5094803;28;20495;-88
2022/03/30 06:25:43;;;;;;;0.67;0.63;;;8.20;99.90;;;;;;5094759;28;20447;-88
2022/03/30 06:28:10;;;;;;;2.57;0.80;;;8.20;99.90;;;;;;5094755;28;20803;-88
2022/03/30 06:30:37;;;;;;;0.93;0.60;;;8.20;99.90;;;;;;5094149;28;20467;-88
2022/03/30 06:33:03;;;;;;;0.40;0.40;;;8.30;99.90;;;;;;5094623;28;20475;-88
2022/03/30 06:35:30;;;;;;;1.80;0.70;;;8.30;99.90;;;;;;5094909;28;20439;-88
2022/03/30 06:37:57;;;;;;;8.90;1.37;;;8.30;99.90;;;;;;5094522;28;20439;-88
2022/03/30 06:40:24;;;;;;;0.73;0.60;;;8.30;99.90;;;;;;5094480;28;20468;-87
2022/03/30 06:42:54;;;;;;;0.97;0.80;;;8.40;99.90;;;;;;5094345;28;20492;-86
2022/03/30 06:45:22;;;;;;;0.70;0.70;;;8.30;99.90;;;;;;5094105;28;20436;-86
2022/03/30 06:47:49;;;;;;;1.63;1.07;;;8.20;99.90;;;;;;5094213;28;20436;-86
2022/03/30 06:50:18;;;;;;;0.70;0.70;;;8.30;99.90;;;;;;5093972;28;20472;-86
2022/03/30 06:52:45;;;;;;;1.90;0.90;;;8.30;99.90;;;;;;5093915;28;20451;-85
2022/03/30 06:55:14;;;;;;;0.60;0.60;;;8.30;99.90;;;;;;5093620;28;20429;-86
2022/03/30 06:57:41;;;;;;;6.90;0.70;;;8.30;99.90;;;;;;5094268;28;20454;-86
2022/03/30 07:00:12;;;;;;;1.03;0.60;;;8.40;99.90;;;;;;5093640;28;20475;-86
2022/03/30 07:02:39;;;;;;;0.70;0.70;;;8.30;99.90;;;;;;5093436;28;20460;-86
2022/03/30 07:05:06;;;;;;;0.50;0.50;;;8.30;99.90;;;;;;5094077;28;20443;-86
2022/03/30 07:10:19;;;;;;;2.13;1.33;;;8.40;99.90;;;;;;5093471;28;20524;-86
2022/03/30 07:12:48;;;;;;;0.70;0.70;;;8.30;99.90;;;;;;5093341;28;20805;-86
2022/03/30 07:15:17;;;;;;;0.70;0.70;;;8.30;99.90;;;;;;5093361;28;20955;-86
2022/03/30 07:17:45;;;;;;;2.10;1.07;;;8.40;99.90;;;;;;5093035;28;20432;-86
2022/03/30 07:20:13;;;;;;;1.77;0.40;;;8.50;99.90;;;;;;5093483;28;20468;-86
2022/03/30 07:22:39;;;;;;;0.90;0.83;;;8.40;99.90;;;;;;5093205;28;20486;-86
2022/03/30 07:25:07;;;;;;;0.80;0.80;;;8.40;99.90;;;;;;5093612;28;20432;-86
2022/03/30 07:27:34;;;;;;;0.97;0.60;;;8.40;99.90;;;;;;5093761;28;20472;-86
2022/03/30 07:30:00;;;;;;;2.10;0.60;;;8.40;99.90;;;;;;5093086;28;20986;-87
2022/03/30 07:32:28;;;;;;;5.13;0.80;;;8.50;99.90;;;;;;5093420;28;20443;-85
2022/03/30 07:34:55;;;;;;;0.70;0.63;;;8.50;99.90;;;;;;5093581;28;20447;-86
2022/03/30 07:37:22;;;;;;;0.70;0.50;;;8.50;99.90;;;;;;5093453;28;20450;-86
2022/03/30 07:39:49;;;;;;;1.13;0.83;;;8.50;99.90;;;;;;5093391;28;20467;-86
2022/03/30 07:42:16;;;;;;;1.13;0.50;;;8.50;99.90;;;;;;5093250;28;20986;-88
2022/03/30 07:44:43;;;;;;;1.33;0.83;;;8.50;99.90;;;;;;5093553;28;20448;-87
2022/03/30 07:47:09;;;;;;;0.40;0.40;;;8.50;99.90;;;;;;5093302;28;20444;-83
2022/03/30 07:49:38;;;;;;;2.40;0.90;;;8.50;99.90;;;;;;5093695;28;20464;-83
2022/03/30 07:52:05;;;;;;;1.33;1.20;;;8.60;99.90;;;;;;5093327;28;20440;-87
2022/03/30 07:54:32;;;;;;;0.30;0.30;;;8.60;99.90;;;;;;5093554;28;20440;-88
2022/03/30 07:56:59;;;;;;;0.30;0.30;;;8.60;99.90;;;;;;5093151;28;20444;-88
2022/03/30 07:59:25;;;;;;;0.37;0.33;;;8.60;99.90;;;;;;5093852;28;20472;-86
2022/03/30 08:01:54;;;;;;;0.50;0.50;;;8.70;99.90;;;;;;5092872;28;20496;-86
2022/03/30 08:04:20;;;;;;;0.30;0.30;;;8.80;99.90;;;;;;5093197;28;20452;-86
2022/03/30 08:06:48;;;;;;;1.07;0.87;;;8.80;99.90;;;;;;5096158;28;20966;-85
2022/03/30 08:09:15;;;;;;;0.37;0.37;;;8.90;99.90;;;;;;5093070;28;20459;-85
2022/03/30 08:11:42;;;;;;;0.30;0.30;;;8.90;99.90;;;;;;5093128;28;20454;-85
2022/03/30 08:14:09;;;;;;;0.57;0.50;;;8.90;99.90;;;;;;5092742;28;20973;-85
2022/03/30 08:16:35;;;;;;;0.40;0.40;;;8.90;99.90;;;;;;5093014;28;20447;-85
2022/03/30 08:19:02;;;;;;;0.70;0.47;;;9.00;99.90;;;;;;5092978;28;20468;-85
2022/03/30 08:24:15;;;;;;;0.87;0.47;;;9.00;99.90;;;;;;5093129;28;20858;-85
2022/03/30 08:26:41;;;;;;;0.50;0.50;;;9.00;99.90;;;;;;5092581;28;20444;-85
2022/03/30 08:29:08;;;;;;;0.40;0.40;;;9.00;99.90;;;;;;5095046;28;20463;-85
2022/03/30 08:31:35;;;;;;;0.60;0.40;;;9.10;99.90;;;;;;5096551;28;20562;-85
2022/03/30 08:34:02;;;;;;;0.47;0.37;;;9.00;99.90;;;;;;5096247;28;20994;-84
2022/03/30 08:36:30;;;;;;;0.73;0.73;;;9.00;99.90;;;;;;5096691;28;20439;-85
2022/03/30 08:38:57;;;;;;;0.97;0.50;;;9.10;99.90;;;;;;5096113;28;20497;-85
2022/03/30 08:41:25;;;;;;;1.43;1.33;;;9.10;99.90;;;;;;5096852;28;20436;-85
2022/03/30 08:43:53;;;;;;;0.30;0.20;;;9.20;99.90;;;;;;5096437;28;20513;-85
2022/03/30 08:46:20;;;;;;;2.83;0.37;;;9.20;99.90;;;;;;5096315;28;20448;-85
2022/03/30 08:48:47;;;;;;;0.70;0.70;;;9.30;99.90;;;;;;5096247;28;20451;-84
2022/03/30 08:51:15;;;;;;;0.30;0.30;;;9.30;99.90;;;;;;5096330;28;20435;-85
2022/03/30 08:53:42;;;;;;;0.50;0.40;;;9.40;99.90;;;;;;5095911;28;20927;-85
2022/03/30 08:56:09;;;;;;;0.30;0.30;;;9.50;99.90;;;;;;5095961;28;20539;-85
2022/03/30 08:58:37;;;;;;;0.70;0.50;;;9.50;99.90;;;;;;5095984;28;20444;-85
2022/03/30 09:01:11;;;;;;;2.43;2.33;;;9.60;99.90;;;;;;5095682;28;20482;-85
2022/03/30 09:03:55;;;;;;;0.57;0.57;;;9.70;99.90;;;;;;5096004;28;20463;-85
2022/03/30 09:06:30;;;;;;;0.80;0.70;;;9.60;99.90;;;;;;5095890;28;20787;-85
2022/03/30 09:08:58;;;;;;;0.50;0.50;;;9.70;99.90;;;;;;5095926;28;20463;-85
2022/03/30 09:11:27;;;;;;;2.93;0.90;;;9.60;99.90;;;;;;5095920;28;20485;-85
2022/03/30 09:14:03;;;;;;;0.40;0.37;;;9.70;99.90;;;;;;5095620;28;20428;-85
2022/03/30 09:16:38;;;;;;;0.67;0.67;;;9.60;99.90;;;;;;5095847;28;20427;-85
2022/03/30 09:19:06;;;;;;;1.47;0.77;;;9.70;99.90;;;;;;5095808;28;20467;-85
2022/03/30 09:21:43;;;;;;;1.13;0.40;;;9.70;99.90;;;;;;5095378;28;20455;-85
2022/03/30 09:24:10;;;;;;;0.40;0.40;;;9.80;99.90;;;;;;5095358;28;20460;-85
2022/03/30 09:26:37;;;;;;;0.73;0.73;;;9.90;99.90;;;;;;5095720;28;20436;-85
2022/03/30 09:29:07;;;;;;;2.60;1.07;;;10.00;99.90;;;;;;5095191;28;20448;-85
2022/03/30 09:31:35;;;;;;;6.07;0.93;;;10.10;99.90;;;;;;5095593;28;20440;-85
2022/03/30 09:34:02;;;;;;;1.63;1.33;;;10.20;99.90;;;;;;5095716;28;20424;-85
2022/03/30 09:36:31;;;;;;;1.57;0.63;;;10.30;99.90;;;;;;5095396;28;20919;-85
2022/03/30 09:38:57;;;;;;;0.60;0.60;;;10.50;99.90;;;;;;5094906;28;21033;-85
2022/03/30 09:41:24;;;;;;;0.40;0.27;;;10.60;99.90;;;;;;5095344;28;20435;-83
2022/03/30 09:44:03;;;;;;;0.70;0.70;;;10.70;99.90;;;;;;5095025;28;20452;-82
2022/03/30 09:46:31;;;;;;;1.10;0.57;;;10.90;99.90;;;;;;5095301;28;20461;-82
2022/03/30 09:48:58;;;;;;;3.70;0.70;;;10.90;99.90;;;;;;5095296;28;20476;-82
2022/03/30 09:51:27;;;;;;;0.40;0.40;;;11.00;99.90;;;;;;5095063;28;20467;-82
2022/03/30 09:53:54;;;;;;;0.83;0.67;;;11.00;99.90;;;;;;5095160;28;20448;-83
2022/03/30 09:56:22;;;;;;;1.80;0.63;;;11.10;99.90;;;;;;5095798;28;20804;-86
2022/03/30 09:58:50;;;;;;;0.53;0.40;;;11.10;99.90;;;;;;5095676;28;20467;-85
2022/03/30 10:01:20;;;;;;;1.63;1.20;;;11.20;99.90;;;;;;5095460;28;20479;-84
2022/03/30 10:03:51;;;;;;;0.70;0.60;;;11.40;99.90;;;;;;5095899;28;20468;-85
2022/03/30 10:06:20;;;;;;;0.67;0.60;;;11.50;99.90;;;;;;5095496;28;20412;-85
2022/03/30 10:08:48;;;;;;;0.97;0.63;;;11.50;99.90;;;;;;5095708;28;20444;-85
2022/03/30 10:11:17;;;;;;;2.10;1.67;;;11.50;99.90;;;;;;5095519;28;20771;-85
2022/03/30 10:13:46;;;;;;;1.30;1.17;;;11.50;99.90;;;;;;5095474;28;20452;-87
2022/03/30 10:16:14;;;;;;;2.40;0.60;;;11.50;99.90;;;;;;5095799;28;20436;-85
2022/03/30 10:18:41;;;;;;;0.57;0.57;;;11.50;99.90;;;;;;5094837;28;20432;-84
2022/03/30 10:21:27;;;;;;;1.00;0.80;;;11.60;99.90;;;;;;5094593;28;20428;-83
2022/03/30 10:24:27;;;;;;;0.87;0.50;;;11.70;99.90;;;;;;5093367;28;20476;-83
2022/03/30 10:27:04;;;;;;;2.00;1.30;;;11.70;99.90;;;;;;5092509;28;20547;-83
2022/03/30 10:29:32;;;;;;;0.40;0.40;;;11.70;99.90;;;;;;5094416;28;20448;-83
2022/03/30 10:32:17;;;;;;;0.60;0.40;;;11.70;99.90;;;;;;5094435;28;20440;-83
2022/03/30 10:34:51;;;;;;;0.60;0.50;;;11.80;99.90;;;;;;5094473;28;20432;-82
2022/03/30 10:37:27;;;;;;;0.97;0.97;;;11.80;99.90;;;;;;5094531;28;20428;-86
2022/03/30 10:39:55;;;;;;;1.00;0.97;;;11.80;99.90;;;;;;5094924;28;20829;-83
2022/03/30 10:42:22;;;;;;;0.70;0.37;;;12.00;99.90;;;;;;5094489;28;20461;-83
2022/03/30 10:44:51;;;;;;;2.67;0.70;;;12.30;99.90;;;;;;5094476;28;20451;-83
2022/03/30 10:47:20;;;;;;;0.47;0.47;;;12.60;99.90;;;;;;5094497;28;20444;-83
2022/03/30 10:49:50;;;;;;;0.50;0.50;;;12.70;99.90;;;;;;5094472;28;20869;-83
2022/03/30 10:52:34;;;;;;;0.60;0.50;;;12.70;99.90;;;;;;5093694;28;20450;-83
2022/03/30 10:55:38;;;;;;;1.20;1.20;;;12.70;99.90;;;;;;5094354;28;20428;-83
2022/03/30 10:58:06;;;;;;;1.07;0.80;;;12.60;99.90;;;;;;5093988;28;20795;-83
2022/03/30 11:00:36;;;;;;;1.10;0.50;;;12.40;99.90;;;;;;5093766;28;20487;-83
2022/03/30 11:03:25;;;;;;;2.93;0.80;;;12.20;99.90;;;;;;5093978;28;20990;-83
2022/03/30 11:06:01;;;;;;;4.33;0.80;;;12.20;99.90;;;;;;5092117;28;20552;-83
2022/03/30 11:08:57;;;;;;;0.40;0.40;;;12.10;99.90;;;;;;5094022;28;20430;-83
2022/03/30 11:11:26;;;;;;;1.30;0.50;;;12.00;99.90;;;;;;5094163;28;20410;-83
2022/03/30 11:14:24;;;;;;;0.73;0.43;;;12.10;99.90;;;;;;5093824;28;20811;-83
2022/03/30 11:16:53;;;;;;;2.00;0.93;;;12.10;99.90;;;;;;5093864;28;20412;-84
2022/03/30 11:19:22;;;;;;;1.70;0.60;;;12.10;99.90;;;;;;5093948;28;20533;-84
2022/03/30 11:22:02;;;;;;;0.60;0.40;;;12.10;99.90;;;;;;5094240;28;20447;-83
2022/03/30 11:24:31;;;;;;;1.50;0.77;;;11.90;99.90;;;;;;5093935;28;20466;-84
2022/03/30 11:27:16;;;;;;;0.50;0.50;;;12.00;99.90;;;;;;5093950;28;20451;-84
2022/03/30 11:30:12;;;;;;;0.77;0.77;;;11.90;99.90;;;;;;5093839;28;20529;-83
2022/03/30 11:33:10;;;;;;;2.20;0.50;;;11.80;99.90;;;;;;5093538;28;20455;-84
2022/03/30 11:35:42;;;;;;;0.70;0.70;;;11.90;99.90;;;;;;5092597;28;20436;-81
2022/03/30 11:38:21;;;;;;;0.90;0.40;;;11.90;99.90;;;;;;5091648;28;20425;-80
2022/03/30 11:40:51;;;;;;;0.67;0.40;;;11.80;99.90;;;;;;5092360;28;20487;-81
2022/03/30 11:43:19;;;;;;;1.40;0.97;;;11.80;99.90;;;;;;5093374;28;20480;-81
2022/03/30 11:45:47;;;;;;;0.80;0.60;;;11.70;99.90;;;;;;5093285;28;20447;-81
2022/03/30 11:48:14;;;;;;;0.87;0.67;;;11.70;99.90;;;;;;5093274;28;20448;-81
2022/03/30 11:50:43;;;;;;;0.83;0.40;;;11.70;99.90;;;;;;5093563;28;20468;-81
2022/03/30 11:53:12;;;;;;;0.83;0.57;;;11.70;99.90;;;;;;5093155;28;20440;-79
2022/03/30 11:55:52;;;;;;;0.50;0.50;;;11.70;99.90;;;;;;5093172;28;20950;-81
2022/03/30 11:58:27;;;;;;;0.50;0.43;;;11.80;99.90;;;;;;5093733;28;20458;-81
2022/03/30 12:00:56;;;;;;;1.03;0.60;;;11.90;99.90;;;;;;5092751;28;20490;-80
2022/03/30 12:03:23;;;;;;;1.53;0.60;;;11.90;99.90;;;;;;5093881;28;20471;-81
2022/03/30 12:05:55;;;;;;;4.53;0.47;;;11.90;99.90;;;;;;5096760;28;20962;-81
2022/03/30 12:08:22;;;;;;;1.07;0.73;;;11.90;99.90;;;;;;5097138;28;20795;-81
2022/03/30 12:10:53;;;;;;;1.07;0.97;;;12.00;99.90;;;;;;5096825;28;20857;-81
2022/03/30 12:13:24;;;;;;;4.40;1.20;;;12.00;99.90;;;;;;5096590;28;20934;-81
2022/03/30 12:16:06;;;;;;;0.57;0.47;;;12.10;99.90;;;;;;5096818;28;20452;-81
2022/03/30 12:18:41;;;;;;;1.37;1.20;;;12.10;99.90;;;;;;5096425;28;20463;-80
2022/03/30 12:21:08;;;;;;;0.50;0.50;;;12.20;99.90;;;;;;5096871;28;20514;-80
2022/03/30 12:23:35;;;;;;;1.70;0.57;;;12.30;99.90;;;;;;5096674;28;20486;-81
2022/03/30 12:26:13;;;;;;;2.17;1.47;;;12.50;99.90;;;;;;5097003;28;20471;-82
2022/03/30 12:28:40;;;;;;;1.10;1.00;;;12.70;99.90;;;;;;5096986;28;20485;-84
2022/03/30 12:31:08;;;;;;;0.80;0.53;;;12.80;99.90;;;;;;5096859;28;20451;-81
2022/03/30 12:33:43;;;;;;;1.00;0.90;;;12.80;99.90;;;;;;5097088;28;20446;-80
2022/03/30 12:36:14;;;;;;;1.30;1.23;;;12.70;99.90;;;;;;5096590;28;20431;-82
2022/03/30 12:38:41;;;;;;;0.40;0.37;;;12.60;99.90;;;;;;5096589;28;20436;-80
2022/03/30 12:41:11;;;;;;;0.53;0.50;;;12.40;99.90;;;;;;5097024;28;20444;-79
2022/03/30 12:43:39;;;;;;;1.70;0.70;;;12.30;99.90;;;;;;5096739;28;20486;-80
2022/03/30 12:46:17;;;;;;;0.87;0.50;;;12.10;99.90;;;;;;5096717;28;20445;-84
2022/03/30 12:48:45;;;;;;;0.50;0.37;;;11.80;99.90;;;;;;5096331;28;20447;-83
2022/03/30 12:51:18;;;;;;;0.93;0.40;;;11.60;99.90;;;;;;5096320;28;20458;-83
2022/03/30 12:53:48;;;;;;;0.57;0.30;;;11.10;99.90;;;;;;5096295;28;20428;-82
2022/03/30 12:56:19;;;;;;;0.50;0.30;;;10.80;99.90;;;;;;5096211;28;20425;-82
2022/03/30 12:58:53;;;;;;;0.40;0.40;;;10.70;99.90;;;;;;5096688;28;20790;-83
2022/03/30 13:01:35;;;;;;;2.00;0.40;;;10.60;99.90;;;;;;5095786;28;21047;-82
2022/03/30 13:04:03;;;;;;;0.53;0.43;;;10.60;99.90;;;;;;5095696;28;20487;-82
2022/03/30 13:06:30;;;;;;;1.17;0.50;;;10.60;99.90;;;;;;5096080;28;20431;-83
2022/03/30 13:09:12;;;;;;;1.57;0.50;;;10.60;99.90;;;;;;5095881;28;20467;-83
2022/03/30 13:11:46;;;;;;;0.40;0.30;;;10.80;99.90;;;;;;5096272;28;20523;-82
2022/03/30 13:14:15;;;;;;;0.60;0.50;;;10.80;99.90;;;;;;5095709;28;20428;-83
2022/03/30 13:16:42;;;;;;;0.70;0.70;;;11.00;99.90;;;;;;5095536;28;20432;-82
2022/03/30 13:19:12;;;;;;;0.97;0.47;;;11.20;99.90;;;;;;5095598;28;20468;-82
2022/03/30 13:21:40;;;;;;;6.93;0.97;;;11.30;99.90;;;;;;5095780;28;20428;-82
2022/03/30 13:24:12;;;;;;;0.77;0.30;;;11.50;99.90;;;;;;5095172;28;20487;-82
2022/03/30 13:26:40;;;;;;;0.40;0.30;;;11.80;99.90;;;;;;5095438;28;20982;-81
2022/03/30 13:29:09;;;;;;;1.10;0.70;;;11.90;99.90;;;;;;5095469;28;20471;-81